sensor_id;sensor_type;location;lat;lon;timestamp;P1;durP1;ratioP1;P2;durP2;ratioP2
70576;SDS011;58138;43.138;24.702;2023-02-28T00:00:12;29.63;;;19.00;;
70576;SDS011;58138;43.138;24.702;2023-02-28T00:02:39;29.08;;;19.85;;
70576;SDS011;58138;43.138;24.702;2023-02-28T00:05:05;31.30;;;20.67;;
70576;SDS011;58138;43.138;24.702;2023-02-28T00:07:32;30.25;;;19.98;;
70576;SDS011;58138;43.138;24.702;2023-02-28T00:09:58;26.65;;;18.52;;
70576;SDS011;58138;43.138;24.702;2023-02-28T00:12:23;28.73;;;19.33;;
70576;SDS011;58138;43.138;24.702;2023-02-28T00:14:49;27.00;;;18.25;;
70576;SDS011;58138;43.138;24.702;2023-02-28T00:17:15;27.23;;;19.02;;
70576;SDS011;58138;43.138;24.702;2023-02-28T00:19:42;32.45;;;21.92;;
70576;SDS011;58138;43.138;24.702;2023-02-28T00:22:08;30.58;;;22.27;;
70576;SDS011;58138;43.138;24.702;2023-02-28T00:24:34;30.67;;;22.33;;
70576;SDS011;58138;43.138;24.702;2023-02-28T00:26:59;31.00;;;21.10;;
70576;SDS011;58138;43.138;24.702;2023-02-28T00:29:25;33.42;;;22.30;;
70576;SDS011;58138;43.138;24.702;2023-02-28T00:31:51;28.42;;;20.42;;
70576;SDS011;58138;43.138;24.702;2023-02-28T00:34:16;28.63;;;19.77;;
70576;SDS011;58138;43.138;24.702;2023-02-28T00:36:42;29.52;;;20.10;;
70576;SDS011;58138;43.138;24.702;2023-02-28T00:39:10;29.23;;;19.40;;
70576;SDS011;58138;43.138;24.702;2023-02-28T00:41:36;27.95;;;19.58;;
70576;SDS011;58138;43.138;24.702;2023-02-28T00:44:02;28.05;;;18.73;;
70576;SDS011;58138;43.138;24.702;2023-02-28T00:46:27;30.08;;;20.17;;
70576;SDS011;58138;43.138;24.702;2023-02-28T00:48:53;30.77;;;20.90;;
70576;SDS011;58138;43.138;24.702;2023-02-28T00:51:18;32.20;;;21.50;;
70576;SDS011;58138;43.138;24.702;2023-02-28T00:53:44;34.92;;;22.30;;
70576;SDS011;58138;43.138;24.702;2023-02-28T00:56:10;34.00;;;21.75;;
70576;SDS011;58138;43.138;24.702;2023-02-28T00:58:35;37.15;;;25.25;;
70576;SDS011;58138;43.138;24.702;2023-02-28T01:01:01;35.33;;;23.63;;
70576;SDS011;58138;43.138;24.702;2023-02-28T01:03:26;32.78;;;21.52;;
70576;SDS011;58138;43.138;24.702;2023-02-28T01:05:52;30.85;;;20.90;;
70576;SDS011;58138;43.138;24.702;2023-02-28T01:08:20;29.13;;;19.58;;
70576;SDS011;58138;43.138;24.702;2023-02-28T01:10:46;25.95;;;18.23;;
70576;SDS011;58138;43.138;24.702;2023-02-28T01:13:13;28.48;;;19.02;;
70576;SDS011;58138;43.138;24.702;2023-02-28T01:15:42;32.25;;;20.77;;
70576;SDS011;58138;43.138;24.702;2023-02-28T01:18:09;26.75;;;17.63;;
70576;SDS011;58138;43.138;24.702;2023-02-28T01:20:36;26.67;;;17.75;;
70576;SDS011;58138;43.138;24.702;2023-02-28T01:23:02;29.98;;;18.40;;
70576;SDS011;58138;43.138;24.702;2023-02-28T01:25:27;24.85;;;17.52;;
70576;SDS011;58138;43.138;24.702;2023-02-28T01:27:53;25.92;;;17.70;;
70576;SDS011;58138;43.138;24.702;2023-02-28T01:30:19;24.30;;;16.80;;
70576;SDS011;58138;43.138;24.702;2023-02-28T01:32:44;22.95;;;16.50;;
70576;SDS011;58138;43.138;24.702;2023-02-28T01:35:10;26.55;;;17.75;;
70576;SDS011;58138;43.138;24.702;2023-02-28T01:37:35;33.17;;;19.85;;
70576;SDS011;58138;43.138;24.702;2023-02-28T01:40:01;34.15;;;20.17;;
70576;SDS011;58138;43.138;24.702;2023-02-28T01:42:26;28.40;;;17.52;;
70576;SDS011;58138;43.138;24.702;2023-02-28T01:45:00;27.00;;;17.60;;
70576;SDS011;58138;43.138;24.702;2023-02-28T01:47:30;29.05;;;17.92;;
70576;SDS011;58138;43.138;24.702;2023-02-28T01:49:58;28.48;;;18.52;;
70576;SDS011;58138;43.138;24.702;2023-02-28T01:52:26;29.00;;;19.33;;
70576;SDS011;58138;43.138;24.702;2023-02-28T01:54:52;29.80;;;20.40;;
70576;SDS011;58138;43.138;24.702;2023-02-28T01:57:22;30.08;;;19.45;;
70576;SDS011;58138;43.138;24.702;2023-02-28T02:00:00;32.83;;;20.48;;
70576;SDS011;58138;43.138;24.702;2023-02-28T02:02:32;27.40;;;20.25;;
70576;SDS011;58138;43.138;24.702;2023-02-28T02:05:15;30.95;;;20.23;;
70576;SDS011;58138;43.138;24.702;2023-02-28T02:07:46;26.58;;;18.95;;
70576;SDS011;58138;43.138;24.702;2023-02-28T02:15:32;31.33;;;21.20;;
70576;SDS011;58138;43.138;24.702;2023-02-28T02:18:05;31.20;;;20.83;;
70576;SDS011;58138;43.138;24.702;2023-02-28T02:26:45;30.50;;;19.45;;
70576;SDS011;58138;43.138;24.702;2023-02-28T02:32:33;30.80;;;19.70;;
70576;SDS011;58138;43.138;24.702;2023-02-28T02:40:37;32.97;;;20.48;;
70576;SDS011;58138;43.138;24.702;2023-02-28T02:46:02;32.05;;;21.00;;
70576;SDS011;58138;43.138;24.702;2023-02-28T02:48:31;33.40;;;22.08;;
70576;SDS011;58138;43.138;24.702;2023-02-28T02:50:59;31.15;;;21.73;;
70576;SDS011;58138;43.138;24.702;2023-02-28T02:53:29;35.65;;;24.35;;
70576;SDS011;58138;43.138;24.702;2023-02-28T02:55:57;36.55;;;23.52;;
70576;SDS011;58138;43.138;24.702;2023-02-28T02:58:26;38.38;;;24.60;;
70576;SDS011;58138;43.138;24.702;2023-02-28T03:00:57;37.33;;;26.02;;
70576;SDS011;58138;43.138;24.702;2023-02-28T03:03:24;41.20;;;26.65;;
70576;SDS011;58138;43.138;24.702;2023-02-28T03:05:56;42.58;;;28.33;;
70576;SDS011;58138;43.138;24.702;2023-02-28T03:08:23;38.50;;;25.67;;
70576;SDS011;58138;43.138;24.702;2023-02-28T03:10:56;39.13;;;25.83;;
70576;SDS011;58138;43.138;24.702;2023-02-28T03:25:05;58.78;;;33.22;;
70576;SDS011;58138;43.138;24.702;2023-02-28T03:27:09;61.22;;;32.15;;
70576;SDS011;58138;43.138;24.702;2023-02-28T03:29:46;68.85;;;31.73;;
70576;SDS011;58138;43.138;24.702;2023-02-28T03:35:39;44.15;;;24.85;;
70576;SDS011;58138;43.138;24.702;2023-02-28T03:38:18;36.55;;;22.25;;
70576;SDS011;58138;43.138;24.702;2023-02-28T03:40:49;31.08;;;20.15;;
70576;SDS011;58138;43.138;24.702;2023-02-28T03:43:18;32.38;;;19.08;;
70576;SDS011;58138;43.138;24.702;2023-02-28T03:45:47;26.65;;;18.67;;
70576;SDS011;58138;43.138;24.702;2023-02-28T03:48:34;29.13;;;17.83;;
70576;SDS011;58138;43.138;24.702;2023-02-28T03:51:06;31.15;;;17.65;;
70576;SDS011;58138;43.138;24.702;2023-02-28T03:53:33;26.42;;;17.23;;
70576;SDS011;58138;43.138;24.702;2023-02-28T04:01:00;26.85;;;16.45;;
70576;SDS011;58138;43.138;24.702;2023-02-28T04:03:33;23.95;;;16.33;;
70576;SDS011;58138;43.138;24.702;2023-02-28T04:06:02;25.52;;;17.92;;
70576;SDS011;58138;43.138;24.702;2023-02-28T04:08:28;25.80;;;16.77;;
70576;SDS011;58138;43.138;24.702;2023-02-28T04:10:56;21.95;;;15.20;;
70576;SDS011;58138;43.138;24.702;2023-02-28T04:13:24;21.13;;;14.82;;
70576;SDS011;58138;43.138;24.702;2023-02-28T04:15:50;19.15;;;14.38;;
70576;SDS011;58138;43.138;24.702;2023-02-28T04:18:15;20.63;;;15.15;;
70576;SDS011;58138;43.138;24.702;2023-02-28T04:20:41;22.05;;;15.65;;
70576;SDS011;58138;43.138;24.702;2023-02-28T04:23:06;24.33;;;17.00;;
70576;SDS011;58138;43.138;24.702;2023-02-28T04:25:32;27.00;;;16.92;;
70576;SDS011;58138;43.138;24.702;2023-02-28T04:27:57;22.95;;;15.82;;
70576;SDS011;58138;43.138;24.702;2023-02-28T04:30:23;23.30;;;16.80;;
70576;SDS011;58138;43.138;24.702;2023-02-28T04:32:48;26.35;;;18.52;;
70576;SDS011;58138;43.138;24.702;2023-02-28T04:35:14;27.08;;;19.13;;
70576;SDS011;58138;43.138;24.702;2023-02-28T04:37:39;42.80;;;30.33;;
70576;SDS011;58138;43.138;24.702;2023-02-28T04:40:05;25.17;;;18.17;;
70576;SDS011;58138;43.138;24.702;2023-02-28T04:42:31;24.88;;;18.25;;
70576;SDS011;58138;43.138;24.702;2023-02-28T04:45:01;26.90;;;20.23;;
70576;SDS011;58138;43.138;24.702;2023-02-28T04:47:27;25.90;;;19.33;;
70576;SDS011;58138;43.138;24.702;2023-02-28T04:49:52;24.33;;;18.65;;
70576;SDS011;58138;43.138;24.702;2023-02-28T04:52:18;24.67;;;17.92;;
70576;SDS011;58138;43.138;24.702;2023-02-28T04:54:43;25.77;;;17.17;;
70576;SDS011;58138;43.138;24.702;2023-02-28T04:57:09;25.45;;;17.05;;
70576;SDS011;58138;43.138;24.702;2023-02-28T04:59:35;26.13;;;18.42;;
70576;SDS011;58138;43.138;24.702;2023-02-28T05:02:00;24.08;;;18.40;;
70576;SDS011;58138;43.138;24.702;2023-02-28T05:04:31;24.92;;;18.10;;
70576;SDS011;58138;43.138;24.702;2023-02-28T05:07:00;21.92;;;16.90;;
70576;SDS011;58138;43.138;24.702;2023-02-28T05:09:27;22.30;;;17.63;;
70576;SDS011;58138;43.138;24.702;2023-02-28T05:11:53;42.58;;;30.08;;
70576;SDS011;58138;43.138;24.702;2023-02-28T05:14:19;32.90;;;21.45;;
70576;SDS011;58138;43.138;24.702;2023-02-28T05:16:44;28.23;;;19.30;;
70576;SDS011;58138;43.138;24.702;2023-02-28T05:19:09;30.42;;;21.70;;
70576;SDS011;58138;43.138;24.702;2023-02-28T05:21:36;27.23;;;20.27;;
70576;SDS011;58138;43.138;24.702;2023-02-28T05:24:05;34.65;;;22.33;;
70576;SDS011;58138;43.138;24.702;2023-02-28T05:26:36;27.17;;;19.73;;
70576;SDS011;58138;43.138;24.702;2023-02-28T05:29:02;25.33;;;19.40;;
70576;SDS011;58138;43.138;24.702;2023-02-28T05:31:28;30.60;;;20.90;;
70576;SDS011;58138;43.138;24.702;2023-02-28T05:33:53;34.80;;;24.30;;
70576;SDS011;58138;43.138;24.702;2023-02-28T05:36:19;35.33;;;25.08;;
70576;SDS011;58138;43.138;24.702;2023-02-28T05:38:46;37.00;;;25.23;;
70576;SDS011;58138;43.138;24.702;2023-02-28T05:41:15;28.90;;;21.63;;
70576;SDS011;58138;43.138;24.702;2023-02-28T05:43:41;28.95;;;19.95;;
70576;SDS011;58138;43.138;24.702;2023-02-28T05:46:07;24.98;;;19.98;;
70576;SDS011;58138;43.138;24.702;2023-02-28T05:48:34;27.70;;;21.45;;
70576;SDS011;58138;43.138;24.702;2023-02-28T05:51:00;25.92;;;20.50;;
70576;SDS011;58138;43.138;24.702;2023-02-28T05:53:26;28.25;;;21.95;;
70576;SDS011;58138;43.138;24.702;2023-02-28T05:55:51;33.35;;;24.00;;
70576;SDS011;58138;43.138;24.702;2023-02-28T05:58:17;47.40;;;30.65;;
70576;SDS011;58138;43.138;24.702;2023-02-28T06:00:43;39.78;;;26.42;;
70576;SDS011;58138;43.138;24.702;2023-02-28T06:03:09;33.47;;;23.40;;
70576;SDS011;58138;43.138;24.702;2023-02-28T06:05:34;47.78;;;28.90;;
70576;SDS011;58138;43.138;24.702;2023-02-28T06:08:00;89.88;;;42.78;;
70576;SDS011;58138;43.138;24.702;2023-02-28T06:10:25;97.68;;;47.70;;
70576;SDS011;58138;43.138;24.702;2023-02-28T06:12:51;67.30;;;33.58;;
70576;SDS011;58138;43.138;24.702;2023-02-28T06:15:16;48.58;;;27.67;;
70576;SDS011;58138;43.138;24.702;2023-02-28T06:17:42;32.60;;;23.67;;
70576;SDS011;58138;43.138;24.702;2023-02-28T06:20:09;33.10;;;21.77;;
70576;SDS011;58138;43.138;24.702;2023-02-28T06:22:37;30.90;;;20.52;;
70576;SDS011;58138;43.138;24.702;2023-02-28T06:25:03;48.42;;;24.25;;
70576;SDS011;58138;43.138;24.702;2023-02-28T06:27:30;44.10;;;24.83;;
70576;SDS011;58138;43.138;24.702;2023-02-28T06:29:56;48.15;;;25.88;;
70576;SDS011;58138;43.138;24.702;2023-02-28T06:32:22;37.70;;;24.60;;
70576;SDS011;58138;43.138;24.702;2023-02-28T06:34:47;49.05;;;27.42;;
70576;SDS011;58138;43.138;24.702;2023-02-28T06:37:14;47.92;;;30.75;;
70576;SDS011;58138;43.138;24.702;2023-02-28T06:39:40;37.42;;;25.90;;
70576;SDS011;58138;43.138;24.702;2023-02-28T06:42:05;50.55;;;30.20;;
70576;SDS011;58138;43.138;24.702;2023-02-28T06:44:31;52.00;;;34.95;;
70576;SDS011;58138;43.138;24.702;2023-02-28T06:47:00;47.03;;;33.33;;
70576;SDS011;58138;43.138;24.702;2023-02-28T06:49:30;38.70;;;28.77;;
70576;SDS011;58138;43.138;24.702;2023-02-28T06:51:56;42.75;;;29.08;;
70576;SDS011;58138;43.138;24.702;2023-02-28T06:54:22;48.83;;;30.23;;
70576;SDS011;58138;43.138;24.702;2023-02-28T06:56:47;55.97;;;36.30;;
70576;SDS011;58138;43.138;24.702;2023-02-28T06:59:12;48.05;;;34.30;;
70576;SDS011;58138;43.138;24.702;2023-02-28T07:01:38;37.78;;;26.90;;
70576;SDS011;58138;43.138;24.702;2023-02-28T07:04:05;38.25;;;27.85;;
70576;SDS011;58138;43.138;24.702;2023-02-28T07:06:31;32.38;;;23.35;;
70576;SDS011;58138;43.138;24.702;2023-02-28T07:08:57;28.45;;;21.90;;
70576;SDS011;58138;43.138;24.702;2023-02-28T07:11:24;28.20;;;20.27;;
70576;SDS011;58138;43.138;24.702;2023-02-28T07:13:51;33.50;;;22.38;;
70576;SDS011;58138;43.138;24.702;2023-02-28T07:16:17;30.58;;;21.35;;
70576;SDS011;58138;43.138;24.702;2023-02-28T07:18:43;28.40;;;21.08;;
70576;SDS011;58138;43.138;24.702;2023-02-28T07:21:09;29.65;;;21.45;;
70576;SDS011;58138;43.138;24.702;2023-02-28T07:23:36;36.75;;;24.35;;
70576;SDS011;58138;43.138;24.702;2023-02-28T07:26:03;36.40;;;23.88;;
70576;SDS011;58138;43.138;24.702;2023-02-28T07:28:30;39.53;;;27.85;;
70576;SDS011;58138;43.138;24.702;2023-02-28T07:30:55;31.73;;;21.55;;
70576;SDS011;58138;43.138;24.702;2023-02-28T07:33:21;27.95;;;19.13;;
70576;SDS011;58138;43.138;24.702;2023-02-28T07:35:46;30.55;;;21.42;;
70576;SDS011;58138;43.138;24.702;2023-02-28T07:38:12;35.78;;;23.95;;
70576;SDS011;58138;43.138;24.702;2023-02-28T07:40:38;31.95;;;21.90;;
70576;SDS011;58138;43.138;24.702;2023-02-28T07:43:04;33.88;;;21.65;;
70576;SDS011;58138;43.138;24.702;2023-02-28T07:45:30;39.83;;;24.25;;
70576;SDS011;58138;43.138;24.702;2023-02-28T07:47:57;40.28;;;24.70;;
70576;SDS011;58138;43.138;24.702;2023-02-28T07:50:22;28.83;;;20.38;;
70576;SDS011;58138;43.138;24.702;2023-02-28T07:52:48;26.10;;;19.10;;
70576;SDS011;58138;43.138;24.702;2023-02-28T07:55:13;25.65;;;18.17;;
70576;SDS011;58138;43.138;24.702;2023-02-28T07:57:39;26.52;;;18.75;;
70576;SDS011;58138;43.138;24.702;2023-02-28T08:00:06;32.15;;;21.08;;
70576;SDS011;58138;43.138;24.702;2023-02-28T08:02:34;33.10;;;22.83;;
70576;SDS011;58138;43.138;24.702;2023-02-28T08:05:00;30.20;;;19.98;;
70576;SDS011;58138;43.138;24.702;2023-02-28T08:07:26;33.65;;;21.92;;
70576;SDS011;58138;43.138;24.702;2023-02-28T08:09:51;42.95;;;27.95;;
70576;SDS011;58138;43.138;24.702;2023-02-28T08:12:16;30.35;;;21.58;;
70576;SDS011;58138;43.138;24.702;2023-02-28T08:14:42;30.45;;;20.08;;
70576;SDS011;58138;43.138;24.702;2023-02-28T08:17:08;22.92;;;17.48;;
70576;SDS011;58138;43.138;24.702;2023-02-28T08:19:34;27.52;;;20.80;;
70576;SDS011;58138;43.138;24.702;2023-02-28T08:22:00;24.73;;;18.17;;
70576;SDS011;58138;43.138;24.702;2023-02-28T08:24:25;30.08;;;21.65;;
70576;SDS011;58138;43.138;24.702;2023-02-28T08:26:51;46.50;;;26.67;;
70576;SDS011;58138;43.138;24.702;2023-02-28T08:29:16;41.03;;;25.55;;
70576;SDS011;58138;43.138;24.702;2023-02-28T08:31:42;42.50;;;26.60;;
70576;SDS011;58138;43.138;24.702;2023-02-28T08:34:14;30.65;;;20.27;;
70576;SDS011;58138;43.138;24.702;2023-02-28T08:36:40;29.35;;;21.85;;
70576;SDS011;58138;43.138;24.702;2023-02-28T08:39:06;34.67;;;23.63;;
70576;SDS011;58138;43.138;24.702;2023-02-28T08:41:32;27.40;;;20.30;;
70576;SDS011;58138;43.138;24.702;2023-02-28T08:43:58;33.92;;;21.10;;
70576;SDS011;58138;43.138;24.702;2023-02-28T08:46:24;27.23;;;20.27;;
70576;SDS011;58138;43.138;24.702;2023-02-28T08:48:53;33.03;;;23.27;;
70576;SDS011;58138;43.138;24.702;2023-02-28T08:51:19;37.10;;;24.92;;
70576;SDS011;58138;43.138;24.702;2023-02-28T08:53:51;32.13;;;22.38;;
70576;SDS011;58138;43.138;24.702;2023-02-28T08:56:20;31.13;;;21.13;;
70576;SDS011;58138;43.138;24.702;2023-02-28T08:58:47;33.03;;;24.70;;
70576;SDS011;58138;43.138;24.702;2023-02-28T09:01:17;36.72;;;26.40;;
70576;SDS011;58138;43.138;24.702;2023-02-28T09:03:44;26.23;;;20.27;;
70576;SDS011;58138;43.138;24.702;2023-02-28T09:06:12;33.85;;;23.52;;
70576;SDS011;58138;43.138;24.702;2023-02-28T09:08:38;28.30;;;19.65;;
70576;SDS011;58138;43.138;24.702;2023-02-28T09:11:04;36.67;;;24.73;;
70576;SDS011;58138;43.138;24.702;2023-02-28T09:13:29;38.10;;;25.80;;
70576;SDS011;58138;43.138;24.702;2023-02-28T09:15:57;40.72;;;28.08;;
70576;SDS011;58138;43.138;24.702;2023-02-28T09:18:23;26.23;;;18.77;;
70576;SDS011;58138;43.138;24.702;2023-02-28T09:20:49;26.92;;;19.02;;
70576;SDS011;58138;43.138;24.702;2023-02-28T09:23:15;38.17;;;21.60;;
70576;SDS011;58138;43.138;24.702;2023-02-28T09:25:51;33.25;;;23.00;;
70576;SDS011;58138;43.138;24.702;2023-02-28T09:28:18;57.58;;;39.08;;
70576;SDS011;58138;43.138;24.702;2023-02-28T09:30:46;30.30;;;21.33;;
70576;SDS011;58138;43.138;24.702;2023-02-28T09:33:13;36.40;;;21.75;;
70576;SDS011;58138;43.138;24.702;2023-02-28T09:35:39;37.80;;;25.70;;
70576;SDS011;58138;43.138;24.702;2023-02-28T09:38:04;36.15;;;23.42;;
70576;SDS011;58138;43.138;24.702;2023-02-28T09:40:34;23.88;;;16.75;;
70576;SDS011;58138;43.138;24.702;2023-02-28T09:43:01;28.52;;;18.38;;
70576;SDS011;58138;43.138;24.702;2023-02-28T09:48:02;38.47;;;26.40;;
70576;SDS011;58138;43.138;24.702;2023-02-28T09:50:30;24.67;;;18.33;;
70576;SDS011;58138;43.138;24.702;2023-02-28T09:52:59;29.95;;;19.90;;
70576;SDS011;58138;43.138;24.702;2023-02-28T09:55:36;23.13;;;15.57;;
70576;SDS011;58138;43.138;24.702;2023-02-28T09:58:05;33.45;;;23.63;;
70576;SDS011;58138;43.138;24.702;2023-02-28T10:00:44;30.50;;;20.77;;
70576;SDS011;58138;43.138;24.702;2023-02-28T10:06:04;30.80;;;21.50;;
70576;SDS011;58138;43.138;24.702;2023-02-28T10:08:39;31.02;;;20.20;;
70576;SDS011;58138;43.138;24.702;2023-02-28T10:11:16;24.58;;;17.95;;
70576;SDS011;58138;43.138;24.702;2023-02-28T10:16:36;35.40;;;24.17;;
70576;SDS011;58138;43.138;24.702;2023-02-28T10:19:10;32.55;;;21.65;;
70576;SDS011;58138;43.138;24.702;2023-02-28T10:21:47;25.23;;;17.75;;
70576;SDS011;58138;43.138;24.702;2023-02-28T10:27:16;36.58;;;25.85;;
70576;SDS011;58138;43.138;24.702;2023-02-28T10:29:47;32.00;;;21.70;;
70576;SDS011;58138;43.138;24.702;2023-02-28T10:32:17;29.40;;;20.45;;
70576;SDS011;58138;43.138;24.702;2023-02-28T10:34:44;30.73;;;21.85;;
70576;SDS011;58138;43.138;24.702;2023-02-28T10:37:14;28.17;;;19.73;;
70576;SDS011;58138;43.138;24.702;2023-02-28T10:39:43;23.00;;;16.33;;
70576;SDS011;58138;43.138;24.702;2023-02-28T10:42:25;26.08;;;17.80;;
70576;SDS011;58138;43.138;24.702;2023-02-28T10:45:05;24.65;;;16.27;;
70576;SDS011;58138;43.138;24.702;2023-02-28T10:47:55;21.30;;;15.23;;
70576;SDS011;58138;43.138;24.702;2023-02-28T10:58:53;31.90;;;20.63;;
70576;SDS011;58138;43.138;24.702;2023-02-28T11:03:58;28.15;;;18.67;;
70576;SDS011;58138;43.138;24.702;2023-02-28T11:08:53;28.80;;;19.95;;
70576;SDS011;58138;43.138;24.702;2023-02-28T11:11:29;26.73;;;18.25;;
70576;SDS011;58138;43.138;24.702;2023-02-28T11:14:05;29.17;;;19.70;;
70576;SDS011;58138;43.138;24.702;2023-02-28T11:16:31;25.75;;;17.27;;
70576;SDS011;58138;43.138;24.702;2023-02-28T11:18:59;30.38;;;21.33;;
70576;SDS011;58138;43.138;24.702;2023-02-28T11:24:44;32.90;;;21.23;;
70576;SDS011;58138;43.138;24.702;2023-02-28T11:26:48;44.20;;;27.35;;
70576;SDS011;58138;43.138;24.702;2023-02-28T11:31:49;33.95;;;23.08;;
70576;SDS011;58138;43.138;24.702;2023-02-28T11:34:27;29.80;;;20.77;;
70576;SDS011;58138;43.138;24.702;2023-02-28T11:36:53;28.60;;;19.58;;
70576;SDS011;58138;43.138;24.702;2023-02-28T11:39:19;25.10;;;17.02;;
70576;SDS011;58138;43.138;24.702;2023-02-28T11:52:48;36.13;;;23.63;;
70576;SDS011;58138;43.138;24.702;2023-02-28T11:58:33;37.78;;;22.65;;
70576;SDS011;58138;43.138;24.702;2023-02-28T12:01:11;31.52;;;20.02;;
70576;SDS011;58138;43.138;24.702;2023-02-28T12:29:00;35.55;;;21.92;;
70576;SDS011;58138;43.138;24.702;2023-02-28T12:31:52;30.33;;;20.20;;
70576;SDS011;58138;43.138;24.702;2023-02-28T12:34:28;29.80;;;19.27;;
70576;SDS011;58138;43.138;24.702;2023-02-28T12:36:58;34.35;;;22.30;;
70576;SDS011;58138;43.138;24.702;2023-02-28T12:39:30;38.38;;;25.85;;
70576;SDS011;58138;43.138;24.702;2023-02-28T12:42:05;39.63;;;22.95;;
70576;SDS011;58138;43.138;24.702;2023-02-28T12:44:35;33.50;;;21.38;;
70576;SDS011;58138;43.138;24.702;2023-02-28T12:47:09;29.70;;;19.55;;
70576;SDS011;58138;43.138;24.702;2023-02-28T12:49:39;32.13;;;22.13;;
70576;SDS011;58138;43.138;24.702;2023-02-28T12:52:08;28.05;;;19.08;;
70576;SDS011;58138;43.138;24.702;2023-02-28T12:57:16;38.78;;;26.67;;
70576;SDS011;58138;43.138;24.702;2023-02-28T13:00:10;33.30;;;22.52;;
70576;SDS011;58138;43.138;24.702;2023-02-28T13:10:50;30.17;;;19.42;;
70576;SDS011;58138;43.138;24.702;2023-02-28T13:13:20;33.17;;;20.85;;
70576;SDS011;58138;43.138;24.702;2023-02-28T13:16:03;29.73;;;19.08;;
70576;SDS011;58138;43.138;24.702;2023-02-28T13:21:08;28.33;;;16.58;;
70576;SDS011;58138;43.138;24.702;2023-02-28T13:26:12;25.88;;;18.52;;
70576;SDS011;58138;43.138;24.702;2023-02-28T13:31:23;35.90;;;20.83;;
70576;SDS011;58138;43.138;24.702;2023-02-28T13:36:27;31.65;;;20.60;;
70576;SDS011;58138;43.138;24.702;2023-02-28T13:42:16;27.35;;;18.80;;
70576;SDS011;58138;43.138;24.702;2023-02-28T13:47:31;32.50;;;20.20;;
70576;SDS011;58138;43.138;24.702;2023-02-28T14:07:26;33.70;;;22.08;;
70576;SDS011;58138;43.138;24.702;2023-02-28T14:09:59;23.70;;;15.88;;
70576;SDS011;58138;43.138;24.702;2023-02-28T14:18:13;29.73;;;19.10;;
70576;SDS011;58138;43.138;24.702;2023-02-28T14:20:41;25.50;;;17.38;;
70576;SDS011;58138;43.138;24.702;2023-02-28T14:23:13;25.48;;;17.45;;
70576;SDS011;58138;43.138;24.702;2023-02-28T14:28:40;28.50;;;19.67;;
70576;SDS011;58138;43.138;24.702;2023-02-28T14:31:42;35.03;;;23.63;;
70576;SDS011;58138;43.138;24.702;2023-02-28T14:34:17;30.05;;;20.35;;
70576;SDS011;58138;43.138;24.702;2023-02-28T14:37:05;30.08;;;19.73;;
70576;SDS011;58138;43.138;24.702;2023-02-28T14:39:34;33.60;;;21.83;;
70576;SDS011;58138;43.138;24.702;2023-02-28T14:42:01;30.48;;;21.40;;
70576;SDS011;58138;43.138;24.702;2023-02-28T14:44:29;34.10;;;22.88;;
70576;SDS011;58138;43.138;24.702;2023-02-28T14:47:02;40.28;;;26.80;;
70576;SDS011;58138;43.138;24.702;2023-02-28T14:49:35;32.15;;;22.33;;
70576;SDS011;58138;43.138;24.702;2023-02-28T14:54:55;31.60;;;21.83;;
70576;SDS011;58138;43.138;24.702;2023-02-28T14:57:33;28.42;;;19.42;;
70576;SDS011;58138;43.138;24.702;2023-02-28T15:00:29;31.52;;;21.00;;
70576;SDS011;58138;43.138;24.702;2023-02-28T15:02:56;35.47;;;22.98;;
70576;SDS011;58138;43.138;24.702;2023-02-28T15:05:47;31.40;;;21.40;;
70576;SDS011;58138;43.138;24.702;2023-02-28T15:08:15;38.75;;;25.95;;
70576;SDS011;58138;43.138;24.702;2023-02-28T15:10:49;34.30;;;23.33;;
70576;SDS011;58138;43.138;24.702;2023-02-28T15:13:23;34.47;;;23.33;;
70576;SDS011;58138;43.138;24.702;2023-02-28T15:15:59;31.48;;;20.70;;
70576;SDS011;58138;43.138;24.702;2023-02-28T15:20:58;34.40;;;21.95;;
70576;SDS011;58138;43.138;24.702;2023-02-28T15:23:31;35.40;;;22.98;;
70576;SDS011;58138;43.138;24.702;2023-02-28T15:25:57;39.10;;;24.98;;
70576;SDS011;58138;43.138;24.702;2023-02-28T15:28:22;42.58;;;26.77;;
70576;SDS011;58138;43.138;24.702;2023-02-28T15:30:57;43.75;;;27.95;;
70576;SDS011;58138;43.138;24.702;2023-02-28T15:33:28;42.55;;;27.42;;
70576;SDS011;58138;43.138;24.702;2023-02-28T15:36:05;38.40;;;25.80;;
70576;SDS011;58138;43.138;24.702;2023-02-28T15:38:36;30.77;;;21.48;;
70576;SDS011;58138;43.138;24.702;2023-02-28T15:41:01;43.50;;;28.95;;
70576;SDS011;58138;43.138;24.702;2023-02-28T15:43:34;57.87;;;38.30;;
70576;SDS011;58138;43.138;24.702;2023-02-28T15:46:02;56.75;;;34.53;;
70576;SDS011;58138;43.138;24.702;2023-02-28T15:48:36;40.67;;;27.98;;
70576;SDS011;58138;43.138;24.702;2023-02-28T15:53:59;35.92;;;24.95;;
70576;SDS011;58138;43.138;24.702;2023-02-28T15:56:27;29.63;;;21.00;;
70576;SDS011;58138;43.138;24.702;2023-02-28T15:58:55;28.50;;;20.33;;
70576;SDS011;58138;43.138;24.702;2023-02-28T16:03:51;32.55;;;23.30;;
70576;SDS011;58138;43.138;24.702;2023-02-28T16:08:47;32.33;;;23.30;;
70576;SDS011;58138;43.138;24.702;2023-02-28T16:11:13;56.88;;;34.95;;
70576;SDS011;58138;43.138;24.702;2023-02-28T16:13:39;31.75;;;21.88;;
70576;SDS011;58138;43.138;24.702;2023-02-28T16:16:05;41.10;;;25.98;;
70576;SDS011;58138;43.138;24.702;2023-02-28T16:18:30;49.38;;;29.65;;
70576;SDS011;58138;43.138;24.702;2023-02-28T16:20:56;45.22;;;31.15;;
70576;SDS011;58138;43.138;24.702;2023-02-28T16:23:22;48.10;;;32.10;;
70576;SDS011;58138;43.138;24.702;2023-02-28T16:25:47;38.88;;;26.45;;
70576;SDS011;58138;43.138;24.702;2023-02-28T16:28:20;36.83;;;24.45;;
70576;SDS011;58138;43.138;24.702;2023-02-28T16:30:50;39.35;;;26.80;;
70576;SDS011;58138;43.138;24.702;2023-02-28T16:33:16;37.83;;;26.17;;
70576;SDS011;58138;43.138;24.702;2023-02-28T16:35:41;38.28;;;26.77;;
70576;SDS011;58138;43.138;24.702;2023-02-28T16:38:07;34.05;;;23.42;;
70576;SDS011;58138;43.138;24.702;2023-02-28T16:40:33;44.25;;;28.05;;
70576;SDS011;58138;43.138;24.702;2023-02-28T16:43:00;45.08;;;27.55;;
70576;SDS011;58138;43.138;24.702;2023-02-28T16:45:31;53.05;;;35.15;;
70576;SDS011;58138;43.138;24.702;2023-02-28T16:47:56;49.65;;;31.10;;
70576;SDS011;58138;43.138;24.702;2023-02-28T16:50:27;49.13;;;33.55;;
70576;SDS011;58138;43.138;24.702;2023-02-28T16:52:53;46.78;;;30.95;;
70576;SDS011;58138;43.138;24.702;2023-02-28T16:55:22;59.63;;;39.72;;
70576;SDS011;58138;43.138;24.702;2023-02-28T16:57:53;42.13;;;26.55;;
70576;SDS011;58138;43.138;24.702;2023-02-28T17:00:20;33.50;;;23.60;;
70576;SDS011;58138;43.138;24.702;2023-02-28T17:02:46;51.78;;;34.35;;
70576;SDS011;58138;43.138;24.702;2023-02-28T17:05:11;25.05;;;17.17;;
70576;SDS011;58138;43.138;24.702;2023-02-28T17:07:38;37.47;;;25.40;;
70576;SDS011;58138;43.138;24.702;2023-02-28T17:10:15;37.30;;;24.00;;
70576;SDS011;58138;43.138;24.702;2023-02-28T17:12:45;43.85;;;28.17;;
70576;SDS011;58138;43.138;24.702;2023-02-28T17:15:15;38.95;;;26.33;;